createdAt,value
2023-05-24T00:00:02.624Z,100.00
2023-05-24T00:02:29.614Z,100.00
2023-05-24T00:05:00.884Z,100.00
2023-05-24T00:07:27.996Z,100.00
2023-05-24T00:09:54.966Z,100.00
2023-05-24T00:12:21.866Z,100.00
2023-05-24T00:14:50.061Z,100.00
2023-05-24T00:17:16.971Z,100.00
2023-05-24T00:19:43.847Z,100.00
2023-05-24T00:22:11.946Z,100.00
2023-05-24T00:24:38.837Z,100.00
2023-05-24T00:27:06.351Z,100.00
2023-05-24T00:29:33.246Z,100.00
2023-05-24T00:32:01.669Z,100.00
2023-05-24T00:34:28.617Z,100.00
2023-05-24T00:36:57.137Z,100.00
2023-05-24T00:39:24.178Z,100.00
2023-05-24T00:41:51.050Z,100.00
2023-05-24T00:44:17.869Z,100.00
2023-05-24T00:46:45.213Z,100.00
2023-05-24T00:49:13.666Z,100.00
2023-05-24T00:51:40.749Z,100.00
2023-05-24T00:54:07.905Z,100.00
2023-05-24T00:56:35.688Z,100.00
2023-05-24T00:59:02.755Z,100.00
2023-05-24T01:01:31.416Z,100.00
2023-05-24T01:03:59.677Z,100.00
2023-05-24T01:06:29.267Z,100.00
2023-05-24T01:09:13.110Z,100.00
2023-05-24T01:11:53.793Z,100.00
2023-05-24T01:14:29.373Z,100.00
2023-05-24T01:17:04.123Z,100.00
2023-05-24T01:19:51.435Z,100.00
2023-05-24T01:22:28.659Z,100.00
2023-05-24T01:25:03.976Z,100.00
2023-05-24T01:27:34.153Z,100.00
2023-05-24T01:30:03.129Z,100.00
2023-05-24T01:32:30.949Z,100.00
2023-05-24T01:34:57.850Z,100.00
2023-05-24T01:37:24.690Z,100.00
2023-05-24T01:39:52.462Z,100.00
2023-05-24T01:42:26.480Z,100.00
2023-05-24T01:45:08.940Z,100.00
2023-05-24T01:47:47.365Z,100.00
2023-05-24T01:50:18.812Z,100.00
2023-05-24T01:52:46.899Z,100.00
2023-05-24T01:55:17.381Z,100.00
2023-05-24T01:57:46.534Z,100.00
2023-05-24T02:00:18.709Z,100.00
2023-05-24T02:02:46.123Z,100.00
2023-05-24T02:05:13.190Z,100.00
2023-05-24T02:07:41.482Z,100.00
2023-05-24T02:10:09.205Z,100.00
2023-05-24T02:12:36.155Z,100.00
2023-05-24T02:15:03.315Z,100.00
2023-05-24T02:17:33.181Z,100.00
2023-05-24T02:20:00.565Z,100.00
2023-05-24T02:22:27.799Z,100.00
2023-05-24T02:24:54.789Z,100.00
2023-05-24T02:27:21.752Z,100.00
2023-05-24T02:29:48.664Z,100.00
2023-05-24T02:32:15.718Z,100.00
2023-05-24T02:34:44.228Z,100.00
2023-05-24T02:37:14.491Z,100.00
2023-05-24T02:39:42.009Z,100.00
2023-05-24T02:42:09.226Z,100.00
2023-05-24T02:44:36.080Z,100.00
2023-05-24T02:47:03.001Z,100.00
2023-05-24T02:49:29.871Z,100.00
2023-05-24T02:51:58.147Z,100.00
2023-05-24T02:54:25.084Z,100.00
2023-05-24T02:56:51.972Z,100.00
2023-05-24T02:59:18.913Z,100.00
2023-05-24T03:01:45.977Z,100.00
2023-05-24T03:04:12.899Z,100.00
2023-05-24T03:06:39.991Z,100.00
2023-05-24T03:09:08.317Z,100.00
2023-05-24T03:11:35.208Z,100.00
2023-05-24T03:14:02.093Z,100.00
2023-05-24T03:16:29.553Z,100.00
2023-05-24T03:18:56.530Z,100.00
2023-05-24T03:21:23.605Z,100.00
2023-05-24T03:23:50.698Z,100.00
2023-05-24T03:26:19.109Z,100.00
2023-05-24T03:28:46.011Z,100.00
2023-05-24T03:31:12.964Z,100.00
2023-05-24T03:33:39.839Z,100.00
2023-05-24T03:36:06.993Z,100.00
2023-05-24T03:38:33.999Z,100.00
2023-05-24T03:41:01.012Z,100.00
2023-05-24T03:43:29.218Z,100.00
2023-05-24T03:45:56.227Z,100.00
2023-05-24T03:48:23.183Z,100.00
2023-05-24T03:50:50.465Z,100.00
2023-05-24T03:53:17.380Z,100.00
2023-05-24T03:55:44.362Z,100.00
2023-05-24T03:58:12.703Z,100.00
2023-05-24T04:00:41.295Z,100.00
2023-05-24T04:03:09.101Z,100.00
2023-05-24T04:05:36.171Z,100.00
2023-05-24T04:08:03.138Z,100.00
2023-05-24T04:10:30.004Z,100.00
2023-05-24T04:12:57.475Z,100.00
2023-05-24T04:15:24.454Z,100.00
2023-05-24T04:17:55.782Z,100.00
2023-05-24T04:20:25.706Z,100.00
2023-05-24T04:22:52.854Z,100.00
2023-05-24T04:25:20.951Z,100.00
2023-05-24T04:27:51.014Z,100.00
2023-05-24T04:30:18.056Z,100.00
2023-05-24T04:32:44.955Z,100.00
2023-05-24T04:35:14.156Z,100.00
2023-05-24T04:37:41.103Z,100.00
2023-05-24T04:40:09.363Z,100.00
2023-05-24T04:42:36.416Z,100.00
2023-05-24T04:45:03.387Z,100.00
2023-05-24T04:47:30.506Z,100.00
2023-05-24T04:49:57.395Z,100.00
2023-05-24T04:52:25.999Z,100.00
2023-05-24T04:54:53.106Z,100.00
2023-05-24T04:57:20.049Z,100.00
2023-05-24T04:59:46.890Z,100.00
2023-05-24T05:02:13.926Z,100.00
2023-05-24T05:04:40.937Z,100.00
2023-05-24T05:07:08.353Z,100.00
2023-05-24T05:09:36.581Z,100.00
2023-05-24T05:12:03.616Z,100.00
2023-05-24T05:14:30.524Z,100.00
2023-05-24T05:16:57.548Z,100.00
2023-05-24T05:19:24.782Z,100.00
2023-05-24T05:21:51.798Z,100.00
2023-05-24T05:24:19.469Z,100.00
2023-05-24T05:26:47.707Z,100.00
2023-05-24T05:29:14.570Z,100.00
2023-05-24T05:31:41.403Z,100.00
2023-05-24T05:34:10.149Z,100.00
2023-05-24T05:36:40.815Z,100.00
2023-05-24T05:39:09.541Z,100.00
2023-05-24T05:41:38.097Z,100.00
2023-05-24T05:44:06.785Z,100.00
2023-05-24T05:46:33.755Z,100.00
2023-05-24T05:49:00.662Z,91.26
2023-05-24T05:51:27.683Z,98.24
2023-05-24T05:53:54.613Z,96.16
2023-05-24T05:56:21.547Z,98.49
2023-05-24T05:58:48.443Z,91.79
2023-05-24T06:01:17.043Z,91.69
2023-05-24T06:03:44.822Z,94.24
2023-05-24T06:06:11.886Z,98.62
2023-05-24T06:08:40.852Z,100.00
2023-05-24T06:11:07.832Z,100.00
2023-05-24T06:13:34.785Z,100.00
2023-05-24T06:16:01.769Z,100.00
2023-05-24T06:18:30.661Z,100.00
2023-05-24T06:20:57.579Z,100.00
2023-05-24T06:23:24.535Z,100.00
2023-05-24T06:25:51.397Z,100.00
2023-05-24T06:28:18.428Z,100.00
2023-05-24T06:30:45.834Z,100.00
2023-05-24T06:33:13.004Z,100.00
2023-05-24T06:35:41.300Z,100.00
2023-05-24T06:38:08.385Z,100.00
2023-05-24T06:40:35.234Z,100.00
2023-05-24T06:43:02.254Z,100.00
2023-05-24T06:45:29.253Z,99.58
2023-05-24T06:47:56.185Z,100.00
2023-05-24T06:50:23.844Z,100.00
2023-05-24T06:52:52.118Z,100.00
2023-05-24T06:55:19.983Z,98.44
2023-05-24T06:57:46.832Z,96.09
2023-05-24T07:00:14.865Z,94.87
2023-05-24T07:02:42.084Z,95.62
2023-05-24T07:05:12.637Z,97.44
2023-05-24T07:07:39.923Z,96.25
2023-05-24T07:10:10.831Z,96.15
2023-05-24T07:12:38.308Z,95.86
2023-05-24T07:15:07.150Z,94.82
2023-05-24T07:17:34.186Z,92.94
2023-05-24T07:20:01.957Z,93.68
2023-05-24T07:22:30.149Z,89.67
2023-05-24T07:24:57.011Z,90.49
2023-05-24T07:27:25.249Z,90.62
2023-05-24T07:29:52.219Z,90.34
2023-05-24T07:32:19.289Z,90.45
2023-05-24T07:34:46.251Z,90.01
2023-05-24T07:37:13.120Z,88.67
2023-05-24T07:39:40.061Z,89.68
2023-05-24T07:42:07.329Z,89.64
2023-05-24T07:44:36.154Z,90.06
2023-05-24T07:47:03.132Z,90.57
2023-05-24T07:49:30.064Z,89.69
2023-05-24T07:51:59.635Z,88.83
2023-05-24T07:54:26.771Z,87.77
2023-05-24T07:56:53.710Z,86.47
2023-05-24T07:59:20.807Z,86.51
2023-05-24T08:01:49.106Z,83.99
2023-05-24T08:04:16.340Z,81.11
2023-05-24T08:06:43.339Z,81.01
2023-05-24T08:09:10.645Z,83.49
2023-05-24T08:11:37.601Z,82.86
2023-05-24T08:14:04.433Z,83.33
2023-05-24T08:16:32.012Z,81.83
2023-05-24T08:19:00.709Z,78.38
2023-05-24T08:21:29.225Z,77.61
2023-05-24T08:23:56.781Z,75.52
2023-05-24T08:26:24.359Z,76.18
2023-05-24T08:28:51.620Z,76.17
2023-05-24T08:31:18.637Z,74.92
2023-05-24T08:33:50.293Z,75.94
2023-05-24T08:36:18.899Z,76.20
2023-05-24T08:38:46.014Z,76.09
2023-05-24T08:41:13.940Z,75.33
2023-05-24T08:43:42.165Z,73.51
2023-05-24T08:46:10.670Z,72.31
2023-05-24T08:48:46.418Z,70.21
2023-05-24T08:51:14.765Z,73.55
2023-05-24T08:53:48.461Z,75.36
2023-05-24T08:56:17.940Z,73.16
2023-05-24T08:58:47.143Z,66.27
2023-05-24T09:01:14.908Z,66.61
2023-05-24T09:03:43.504Z,65.11
2023-05-24T09:06:12.205Z,66.77
2023-05-24T09:08:42.396Z,63.12
2023-05-24T09:11:12.230Z,66.02
2023-05-24T09:13:39.920Z,68.79
2023-05-24T09:16:07.472Z,68.88
2023-05-24T09:18:34.299Z,65.52
2023-05-24T09:21:01.175Z,64.73
2023-05-24T09:23:28.349Z,62.62
2023-05-24T09:25:55.362Z,64.34
2023-05-24T09:28:25.044Z,64.97
2023-05-24T09:31:00.105Z,65.95
2023-05-24T09:33:30.418Z,65.30
2023-05-24T09:35:58.914Z,63.87
2023-05-24T09:38:26.496Z,65.08
2023-05-24T09:41:00.327Z,66.18
2023-05-24T09:43:32.993Z,61.03
2023-05-24T09:46:01.964Z,61.70
2023-05-24T09:48:29.884Z,57.56
2023-05-24T09:51:04.138Z,58.52
2023-05-24T09:53:33.918Z,55.80
2023-05-24T09:56:03.983Z,61.92
2023-05-24T09:58:33.590Z,59.27
2023-05-24T10:01:05.790Z,60.44
2023-05-24T10:03:32.751Z,58.41
2023-05-24T10:06:01.927Z,56.68
2023-05-24T10:08:28.900Z,58.51
2023-05-24T10:10:56.956Z,55.74
2023-05-24T10:13:24.182Z,50.49
2023-05-24T10:15:52.478Z,49.02
2023-05-24T10:18:19.994Z,54.00
2023-05-24T10:20:47.565Z,58.35
2023-05-24T10:23:19.830Z,57.42
2023-05-24T10:25:51.222Z,55.30
2023-05-24T10:28:20.371Z,54.01
2023-05-24T10:31:27.780Z,55.92
2023-05-24T10:34:07.040Z,56.83
2023-05-24T10:36:35.447Z,54.46
2023-05-24T10:39:03.610Z,50.02
2023-05-24T10:41:39.821Z,53.40
2023-05-24T10:44:11.276Z,50.00
2023-05-24T10:47:02.457Z,50.21
2023-05-24T10:49:31.420Z,52.58
2023-05-24T10:52:02.598Z,51.09
2023-05-24T10:54:29.602Z,45.15
2023-05-24T10:57:05.061Z,44.63
2023-05-24T10:59:38.057Z,43.97
2023-05-24T11:02:09.659Z,45.31
2023-05-24T11:04:46.047Z,48.54
2023-05-24T11:07:15.449Z,43.23
2023-05-24T11:09:46.803Z,42.38
2023-05-24T11:12:18.893Z,42.92
2023-05-24T11:14:50.499Z,43.20
2023-05-24T11:17:19.433Z,40.63
2023-05-24T11:19:50.135Z,44.03
2023-05-24T11:22:17.992Z,41.34
2023-05-24T11:24:45.531Z,39.49
2023-05-24T11:27:14.340Z,41.37
2023-05-24T11:29:42.657Z,41.23
2023-05-24T11:32:10.109Z,38.71
2023-05-24T11:34:40.017Z,38.18
2023-05-24T11:37:08.386Z,38.45
2023-05-24T11:39:37.666Z,39.51
2023-05-24T11:42:06.492Z,37.50
2023-05-24T11:44:34.672Z,37.26
2023-05-24T11:47:03.425Z,35.96
2023-05-24T11:49:30.504Z,38.59
2023-05-24T11:51:59.145Z,37.44
2023-05-24T11:54:28.584Z,38.38
2023-05-24T11:56:56.202Z,37.83
2023-05-24T11:59:25.214Z,39.65
2023-05-24T12:01:59.005Z,44.29
2023-05-24T12:04:26.182Z,42.85
2023-05-24T12:06:53.267Z,40.84
2023-05-24T12:09:20.518Z,40.34
2023-05-24T12:11:50.724Z,38.59
2023-05-24T12:14:22.996Z,41.90
2023-05-24T12:16:54.108Z,39.86
2023-05-24T12:21:55.542Z,39.94
2023-05-24T12:24:24.059Z,42.35
2023-05-24T12:26:52.508Z,42.21
2023-05-24T12:29:20.084Z,44.84
2023-05-24T12:31:49.059Z,41.98
2023-05-24T12:34:18.692Z,40.68
2023-05-24T12:36:46.465Z,41.19
2023-05-24T12:39:18.671Z,44.40
2023-05-24T12:41:46.097Z,42.52
2023-05-24T12:44:14.472Z,42.52
2023-05-24T12:46:41.416Z,42.98
2023-05-24T12:49:10.060Z,43.08
2023-05-24T12:51:36.968Z,45.05
2023-05-24T12:54:05.346Z,43.79
2023-05-24T12:56:33.405Z,45.76
2023-05-24T12:59:00.589Z,43.15
2023-05-24T13:01:28.916Z,43.00
2023-05-24T13:03:55.887Z,42.08
2023-05-24T13:06:22.996Z,44.98
2023-05-24T13:08:49.955Z,46.33
2023-05-24T13:11:17.270Z,46.06
2023-05-24T13:13:47.552Z,49.19
2023-05-24T13:16:14.661Z,47.68
2023-05-24T13:18:43.048Z,48.46
2023-05-24T13:21:12.224Z,46.44
2023-05-24T13:23:40.347Z,45.96
2023-05-24T13:26:07.392Z,46.64
2023-05-24T13:28:36.967Z,45.89
2023-05-24T13:31:04.685Z,48.13
2023-05-24T13:33:34.468Z,47.30
2023-05-24T13:36:02.775Z,46.77
2023-05-24T13:38:29.701Z,49.34
2023-05-24T13:40:56.654Z,49.48
2023-05-24T13:43:23.591Z,50.87
2023-05-24T13:45:50.819Z,50.47
2023-05-24T13:48:18.005Z,48.17
2023-05-24T13:50:45.265Z,48.87
2023-05-24T13:53:13.933Z,51.14
2023-05-24T13:55:40.928Z,52.31
2023-05-24T13:58:08.045Z,50.82
2023-05-24T14:00:36.152Z,50.33
2023-05-24T14:03:04.280Z,51.82
2023-05-24T14:05:31.342Z,50.52
2023-05-24T14:08:04.092Z,51.20
2023-05-24T14:10:32.981Z,48.66
2023-05-24T14:13:20.635Z,49.78
2023-05-24T14:15:46.968Z,49.80
2023-05-24T14:18:14.527Z,48.91
2023-05-24T14:20:41.604Z,45.98
2023-05-24T14:23:09.441Z,48.87
2023-05-24T14:25:38.120Z,49.61
2023-05-24T14:28:05.049Z,50.05
2023-05-24T14:30:32.353Z,50.70
2023-05-24T14:33:00.801Z,52.39
2023-05-24T14:35:27.832Z,52.08
2023-05-24T14:37:54.773Z,50.62
2023-05-24T14:40:24.570Z,52.87
2023-05-24T14:42:52.929Z,50.52
2023-05-24T14:45:19.806Z,51.65
2023-05-24T14:47:46.827Z,52.94
2023-05-24T14:50:13.919Z,53.75
2023-05-24T14:52:40.955Z,52.64
2023-05-24T14:55:08.607Z,52.14
2023-05-24T14:57:35.988Z,53.51
2023-05-24T15:00:04.959Z,54.47
2023-05-24T15:02:34.269Z,53.55
2023-05-24T15:05:01.621Z,54.19
2023-05-24T15:07:28.545Z,51.87
2023-05-24T15:09:55.959Z,53.28
2023-05-24T15:12:22.941Z,54.05
2023-05-24T15:14:49.899Z,56.03
2023-05-24T15:17:20.928Z,52.94
2023-05-24T15:19:48.695Z,54.73
2023-05-24T15:22:15.869Z,54.24
2023-05-24T15:24:42.714Z,54.25
2023-05-24T15:27:10.710Z,52.13
2023-05-24T15:29:37.579Z,51.41
2023-05-24T15:32:04.777Z,53.03
2023-05-24T15:34:33.012Z,54.85
2023-05-24T15:37:00.009Z,54.37
2023-05-24T15:39:27.032Z,56.00
2023-05-24T15:41:54.044Z,56.14
2023-05-24T15:44:24.892Z,54.17
2023-05-24T15:46:52.127Z,55.42
2023-05-24T15:49:19.328Z,54.29
2023-05-24T15:52:03.763Z,53.63
2023-05-24T15:54:31.750Z,53.05
2023-05-24T15:57:00.577Z,54.46
2023-05-24T15:59:27.598Z,54.13
2023-05-24T16:01:55.254Z,53.47
2023-05-24T16:04:22.218Z,53.24
2023-05-24T16:06:50.633Z,53.17
2023-05-24T16:09:17.482Z,54.18
2023-05-24T16:11:44.449Z,53.25
2023-05-24T16:14:11.524Z,53.56
2023-05-24T16:16:38.586Z,53.76
2023-05-24T16:19:05.807Z,52.62
2023-05-24T16:21:33.169Z,51.71
2023-05-24T16:24:03.397Z,53.19
2023-05-24T16:26:33.482Z,53.10
2023-05-24T16:29:01.723Z,55.43
2023-05-24T16:31:30.302Z,53.64
2023-05-24T16:33:58.839Z,55.06
2023-05-24T16:36:27.026Z,53.20
2023-05-24T16:38:54.065Z,54.92
2023-05-24T16:41:22.471Z,56.68
2023-05-24T16:43:49.488Z,57.24
2023-05-24T16:46:16.526Z,58.04
2023-05-24T16:49:00.898Z,59.55
2023-05-24T16:51:27.975Z,61.85
2023-05-24T16:53:54.934Z,61.47
2023-05-24T16:56:23.233Z,62.63
2023-05-24T16:58:50.120Z,62.34
2023-05-24T17:01:17.150Z,60.91
2023-05-24T17:03:44.132Z,61.00
2023-05-24T17:06:11.009Z,60.82
2023-05-24T17:08:38.008Z,60.47
2023-05-24T17:11:06.120Z,60.09
2023-05-24T17:13:34.471Z,62.68
2023-05-24T17:16:03.921Z,61.87
2023-05-24T17:18:31.179Z,63.24
2023-05-24T17:21:00.158Z,63.20
2023-05-24T17:23:28.241Z,61.69
2023-05-24T17:25:58.414Z,60.59
2023-05-24T17:28:27.887Z,63.09
2023-05-24T17:30:57.215Z,62.16
2023-05-24T17:33:26.041Z,64.68
2023-05-24T17:35:53.819Z,65.09
2023-05-24T17:38:20.709Z,64.45
2023-05-24T17:40:49.008Z,65.70
2023-05-24T17:43:15.950Z,66.88
2023-05-24T17:45:43.279Z,66.42
2023-05-24T17:48:11.723Z,65.57
2023-05-24T17:50:38.649Z,64.44
2023-05-24T17:53:10.980Z,66.13
2023-05-24T17:55:46.029Z,65.35
2023-05-24T17:58:12.865Z,65.85
2023-05-24T18:00:39.745Z,65.46
2023-05-24T18:03:08.251Z,66.78
2023-05-24T18:05:36.491Z,65.55
2023-05-24T18:08:03.988Z,66.60
2023-05-24T18:10:30.842Z,65.71
2023-05-24T18:12:57.797Z,65.64
2023-05-24T18:15:24.700Z,65.54
2023-05-24T18:17:51.660Z,65.35
2023-05-24T18:20:18.563Z,65.31
2023-05-24T18:22:47.416Z,68.19
2023-05-24T18:25:14.373Z,67.36
2023-05-24T18:27:41.257Z,67.83
2023-05-24T18:30:09.130Z,69.20
2023-05-24T18:32:36.907Z,67.59
2023-05-24T18:35:05.556Z,68.20
2023-05-24T18:37:32.479Z,66.99
2023-05-24T18:40:00.780Z,68.71
2023-05-24T18:42:27.621Z,68.49
2023-05-24T18:44:54.563Z,69.21
2023-05-24T18:47:21.485Z,69.81
2023-05-24T18:49:48.390Z,72.09
2023-05-24T18:52:15.424Z,71.00
2023-05-24T18:54:42.300Z,70.97
2023-05-24T18:57:10.820Z,71.70
2023-05-24T18:59:37.759Z,72.86
2023-05-24T19:02:06.191Z,73.93
2023-05-24T19:04:33.157Z,73.03
2023-05-24T19:07:00.330Z,74.71
2023-05-24T19:09:27.282Z,74.31
2023-05-24T19:11:56.333Z,76.38
2023-05-24T19:14:24.862Z,76.61
2023-05-24T19:16:52.416Z,75.14
2023-05-24T19:19:19.386Z,76.73
2023-05-24T19:21:46.628Z,77.09
2023-05-24T19:24:13.538Z,77.98
2023-05-24T19:26:40.459Z,77.64
2023-05-24T19:29:07.485Z,78.31
2023-05-24T19:31:36.401Z,79.18
2023-05-24T19:34:03.626Z,80.01
2023-05-24T19:36:32.890Z,80.18
2023-05-24T19:38:59.908Z,81.93
2023-05-24T19:41:27.053Z,82.15
2023-05-24T19:43:58.490Z,81.64
2023-05-24T19:46:25.869Z,82.95
2023-05-24T19:48:54.334Z,83.28
2023-05-24T19:51:21.422Z,84.52
2023-05-24T19:53:48.355Z,84.90
2023-05-24T19:56:15.308Z,85.34
2023-05-24T19:58:42.480Z,86.67
2023-05-24T20:01:09.346Z,87.73
2023-05-24T20:03:36.342Z,86.96
2023-05-24T20:06:04.791Z,87.81
2023-05-24T20:08:31.681Z,89.30
2023-05-24T20:10:58.507Z,89.63
2023-05-24T20:13:25.481Z,91.61
2023-05-24T20:15:54.392Z,92.62
2023-05-24T20:18:22.895Z,92.64
2023-05-24T20:20:49.936Z,93.28
2023-05-24T20:23:18.302Z,94.61
2023-05-24T20:25:45.823Z,94.26
2023-05-24T20:28:25.621Z,96.92
2023-05-24T20:30:56.370Z,96.09
2023-05-24T20:33:23.242Z,97.22
2023-05-24T20:35:50.164Z,96.70
2023-05-24T20:38:18.531Z,96.46
2023-05-24T20:40:45.390Z,97.63
2023-05-24T20:43:12.351Z,98.78
2023-05-24T20:45:39.284Z,99.85
2023-05-24T20:48:06.877Z,100.00
2023-05-24T20:50:33.771Z,100.00
2023-05-24T20:53:00.743Z,100.00
2023-05-24T20:55:29.025Z,100.00
2023-05-24T20:57:55.853Z,100.00
2023-05-24T21:00:22.877Z,100.00
2023-05-24T21:02:49.721Z,100.00
2023-05-24T21:05:16.786Z,100.00
2023-05-24T21:07:43.710Z,100.00
2023-05-24T21:10:16.718Z,100.00
2023-05-24T21:12:45.164Z,100.00
2023-05-24T21:15:12.298Z,100.00
2023-05-24T21:17:39.318Z,100.00
2023-05-24T21:20:07.557Z,100.00
2023-05-24T21:22:34.502Z,100.00
2023-05-24T21:25:01.383Z,100.00
2023-05-24T21:27:28.298Z,100.00
2023-05-24T21:29:56.543Z,100.00
2023-05-24T21:32:23.442Z,100.00
2023-05-24T21:34:50.344Z,100.00
2023-05-24T21:37:17.561Z,100.00
2023-05-24T21:39:44.701Z,100.00
2023-05-24T21:42:11.641Z,100.00
2023-05-24T21:44:38.524Z,100.00
2023-05-24T21:47:06.945Z,100.00
2023-05-24T21:49:33.802Z,100.00
2023-05-24T21:52:00.661Z,100.00
2023-05-24T21:54:27.554Z,100.00
2023-05-24T21:56:54.514Z,100.00
2023-05-24T21:59:21.476Z,100.00
2023-05-24T22:01:48.718Z,100.00
2023-05-24T22:04:17.159Z,100.00
2023-05-24T22:06:45.990Z,100.00
2023-05-24T22:09:13.767Z,100.00
2023-05-24T22:11:43.266Z,100.00
2023-05-24T22:14:10.994Z,100.00
2023-05-24T22:16:38.023Z,100.00
2023-05-24T22:19:11.606Z,100.00
2023-05-24T22:21:41.841Z,100.00
2023-05-24T22:24:08.941Z,100.00
2023-05-24T22:26:35.897Z,100.00
2023-05-24T22:29:05.905Z,100.00
2023-05-24T22:31:33.777Z,100.00
2023-05-24T22:34:03.934Z,100.00
2023-05-24T22:36:35.112Z,100.00
2023-05-24T22:39:04.285Z,100.00
2023-05-24T22:41:31.515Z,100.00
2023-05-24T22:43:58.556Z,100.00
2023-05-24T22:46:25.849Z,100.00
2023-05-24T22:48:53.032Z,100.00
2023-05-24T22:51:20.189Z,100.00
2023-05-24T22:53:47.314Z,100.00
2023-05-24T22:56:15.866Z,100.00
2023-05-24T22:58:42.890Z,100.00
2023-05-24T23:01:09.851Z,100.00
2023-05-24T23:03:36.821Z,100.00
2023-05-24T23:06:04.601Z,100.00
2023-05-24T23:08:34.715Z,100.00
2023-05-24T23:11:01.570Z,100.00
2023-05-24T23:13:33.496Z,100.00
2023-05-24T23:16:00.680Z,100.00
2023-05-24T23:18:27.923Z,100.00
2023-05-24T23:20:56.069Z,100.00
2023-05-24T23:23:25.027Z,100.00
2023-05-24T23:25:52.094Z,100.00
2023-05-24T23:28:19.611Z,100.00
2023-05-24T23:30:47.856Z,100.00
2023-05-24T23:33:14.775Z,100.00
2023-05-24T23:35:41.987Z,100.00
2023-05-24T23:38:09.104Z,100.00
2023-05-24T23:40:36.714Z,100.00
2023-05-24T23:43:03.831Z,100.00
2023-05-24T23:45:30.850Z,100.00
2023-05-24T23:47:59.553Z,100.00
2023-05-24T23:50:27.494Z,100.00
2023-05-24T23:52:54.860Z,100.00
2023-05-24T23:55:22.215Z,100.00
2023-05-24T23:57:49.443Z,100.00
